<?xml version="1.0" encoding="UTF-8" standalone="no" ?>
<gpx xmlns="http://www.topografix.com/GPX/1/1" xmlns:xsi="http://www.w3.org/2001/XMLSchema-instance" xsi:schemaLocation="http://www.topografix.com/GPX/1/1 http://www.topografix.com/GPX/1/1/gpx.xsd" version="1.1" creator="VisuGPX - https://www.visugpx.com">
  <metadata>
    <name>Saint Florent sur Auzonnet</name>
    <desc><![CDATA[On retiendra de cette balade des chemins agréables avec des vues dégagées.]]></desc>
  </metadata>
  <trk>
    <name><![CDATA[2014 03 11 Saint Florent sur Auzonnet]]></name>
    <trkseg>
      <trkpt lat="44.24164" lon="4.11265">
        <ele>253</ele>
        <time>2014-03-11T13:03:51Z</time>
      </trkpt>
      <trkpt lat="44.24147" lon="4.11258">
        <ele>250</ele>
        <time>2014-03-11T13:04:14Z</time>
      </trkpt>
      <trkpt lat="44.2413" lon="4.11252">
        <ele>250</ele>
        <time>2014-03-11T13:04:27Z</time>
      </trkpt>
      <trkpt lat="44.24115" lon="4.11263">
        <ele>250</ele>
        <time>2014-03-11T13:04:40Z</time>
      </trkpt>
      <trkpt lat="44.24101" lon="4.11277">
        <ele>251</ele>
        <time>2014-03-11T13:04:55Z</time>
      </trkpt>
      <trkpt lat="44.24088" lon="4.11292">
        <ele>251</ele>
        <time>2014-03-11T13:05:10Z</time>
      </trkpt>
      <trkpt lat="44.24074" lon="4.11305">
        <ele>251</ele>
        <time>2014-03-11T13:05:25Z</time>
      </trkpt>
      <trkpt lat="44.24059" lon="4.11317">
        <ele>250</ele>
        <time>2014-03-11T13:05:40Z</time>
      </trkpt>
      <trkpt lat="44.24046" lon="4.11333">
        <ele>253</ele>
        <time>2014-03-11T13:05:54Z</time>
      </trkpt>
      <trkpt lat="44.24029" lon="4.11338">
        <ele>253</ele>
        <time>2014-03-11T13:06:09Z</time>
      </trkpt>
      <trkpt lat="44.24011" lon="4.1134">
        <ele>254</ele>
        <time>2014-03-11T13:06:24Z</time>
      </trkpt>
      <trkpt lat="44.23994" lon="4.11343">
        <ele>248</ele>
        <time>2014-03-11T13:06:42Z</time>
      </trkpt>
      <trkpt lat="44.23977" lon="4.1135">
        <ele>242</ele>
        <time>2014-03-11T13:06:58Z</time>
      </trkpt>
      <trkpt lat="44.2396" lon="4.11354">
        <ele>247</ele>
        <time>2014-03-11T13:07:11Z</time>
      </trkpt>
      <trkpt lat="44.23942" lon="4.11348">
        <ele>245</ele>
        <time>2014-03-11T13:07:29Z</time>
      </trkpt>
      <trkpt lat="44.23926" lon="4.11339">
        <ele>244</ele>
        <time>2014-03-11T13:07:46Z</time>
      </trkpt>
      <trkpt lat="44.2391" lon="4.1133">
        <ele>232</ele>
        <time>2014-03-11T13:08:08Z</time>
      </trkpt>
      <trkpt lat="44.23894" lon="4.11319">
        <ele>236</ele>
        <time>2014-03-11T13:08:39Z</time>
      </trkpt>
      <trkpt lat="44.23878" lon="4.1131">
        <ele>236</ele>
        <time>2014-03-11T13:08:56Z</time>
      </trkpt>
      <trkpt lat="44.23862" lon="4.11301">
        <ele>236</ele>
        <time>2014-03-11T13:09:09Z</time>
      </trkpt>
      <trkpt lat="44.23846" lon="4.11292">
        <ele>231</ele>
        <time>2014-03-11T13:09:47Z</time>
      </trkpt>
      <trkpt lat="44.23829" lon="4.11287">
        <ele>233</ele>
        <time>2014-03-11T13:10:02Z</time>
      </trkpt>
      <trkpt lat="44.23812" lon="4.11279">
        <ele>236</ele>
        <time>2014-03-11T13:10:19Z</time>
      </trkpt>
      <trkpt lat="44.23795" lon="4.11272">
        <ele>233</ele>
        <time>2014-03-11T13:10:34Z</time>
      </trkpt>
      <trkpt lat="44.23779" lon="4.11264">
        <ele>232</ele>
        <time>2014-03-11T13:10:48Z</time>
      </trkpt>
      <trkpt lat="44.23762" lon="4.1126">
        <ele>234</ele>
        <time>2014-03-11T13:11:03Z</time>
      </trkpt>
      <trkpt lat="44.23746" lon="4.11251">
        <ele>234</ele>
        <time>2014-03-11T13:11:17Z</time>
      </trkpt>
      <trkpt lat="44.23729" lon="4.11244">
        <ele>233</ele>
        <time>2014-03-11T13:11:33Z</time>
      </trkpt>
      <trkpt lat="44.23713" lon="4.11252">
        <ele>231</ele>
        <time>2014-03-11T13:11:51Z</time>
      </trkpt>
      <trkpt lat="44.23703" lon="4.11273">
        <ele>226</ele>
        <time>2014-03-11T13:12:08Z</time>
      </trkpt>
      <trkpt lat="44.23693" lon="4.11292">
        <ele>222</ele>
        <time>2014-03-11T13:12:24Z</time>
      </trkpt>
      <trkpt lat="44.23683" lon="4.11312">
        <ele>219</ele>
        <time>2014-03-11T13:12:39Z</time>
      </trkpt>
      <trkpt lat="44.23671" lon="4.1133">
        <ele>218</ele>
        <time>2014-03-11T13:12:54Z</time>
      </trkpt>
      <trkpt lat="44.2366" lon="4.11349">
        <ele>214</ele>
        <time>2014-03-11T13:13:10Z</time>
      </trkpt>
      <trkpt lat="44.23648" lon="4.11367">
        <ele>212</ele>
        <time>2014-03-11T13:13:26Z</time>
      </trkpt>
      <trkpt lat="44.23639" lon="4.11385">
        <ele>209</ele>
        <time>2014-03-11T13:13:39Z</time>
      </trkpt>
      <trkpt lat="44.23629" lon="4.11404">
        <ele>215</ele>
        <time>2014-03-11T13:13:51Z</time>
      </trkpt>
      <trkpt lat="44.23617" lon="4.11421">
        <ele>208</ele>
        <time>2014-03-11T13:14:08Z</time>
      </trkpt>
      <trkpt lat="44.23605" lon="4.11439">
        <ele>211</ele>
        <time>2014-03-11T13:14:22Z</time>
      </trkpt>
      <trkpt lat="44.23596" lon="4.11458">
        <ele>216</ele>
        <time>2014-03-11T13:14:33Z</time>
      </trkpt>
      <trkpt lat="44.23586" lon="4.11479">
        <ele>221</ele>
        <time>2014-03-11T13:14:47Z</time>
      </trkpt>
      <trkpt lat="44.23577" lon="4.115">
        <ele>216</ele>
        <time>2014-03-11T13:15:03Z</time>
      </trkpt>
      <trkpt lat="44.23568" lon="4.11521">
        <ele>217</ele>
        <time>2014-03-11T13:15:17Z</time>
      </trkpt>
      <trkpt lat="44.2356" lon="4.11542">
        <ele>225</ele>
        <time>2014-03-11T13:15:29Z</time>
      </trkpt>
      <trkpt lat="44.23551" lon="4.11563">
        <ele>226</ele>
        <time>2014-03-11T13:15:43Z</time>
      </trkpt>
      <trkpt lat="44.23544" lon="4.11585">
        <ele>220</ele>
        <time>2014-03-11T13:15:59Z</time>
      </trkpt>
      <trkpt lat="44.23536" lon="4.11607">
        <ele>219</ele>
        <time>2014-03-11T13:16:14Z</time>
      </trkpt>
      <trkpt lat="44.23528" lon="4.11627">
        <ele>225</ele>
        <time>2014-03-11T13:16:26Z</time>
      </trkpt>
      <trkpt lat="44.23518" lon="4.11647">
        <ele>228</ele>
        <time>2014-03-11T13:16:39Z</time>
      </trkpt>
      <trkpt lat="44.23505" lon="4.11663">
        <ele>217</ele>
        <time>2014-03-11T13:16:57Z</time>
      </trkpt>
      <trkpt lat="44.23488" lon="4.1167">
        <ele>215</ele>
        <time>2014-03-11T13:17:13Z</time>
      </trkpt>
      <trkpt lat="44.23471" lon="4.1167">
        <ele>218</ele>
        <time>2014-03-11T13:17:26Z</time>
      </trkpt>
      <trkpt lat="44.23454" lon="4.11675">
        <ele>215</ele>
        <time>2014-03-11T13:17:41Z</time>
      </trkpt>
      <trkpt lat="44.23436" lon="4.11677">
        <ele>218</ele>
        <time>2014-03-11T13:17:54Z</time>
      </trkpt>
      <trkpt lat="44.2342" lon="4.11667">
        <ele>221</ele>
        <time>2014-03-11T13:18:16Z</time>
      </trkpt>
      <trkpt lat="44.23406" lon="4.11653">
        <ele>223</ele>
        <time>2014-03-11T13:18:33Z</time>
      </trkpt>
      <trkpt lat="44.2339" lon="4.11641">
        <ele>226</ele>
        <time>2014-03-11T13:18:48Z</time>
      </trkpt>
      <trkpt lat="44.23377" lon="4.11657">
        <ele>218</ele>
        <time>2014-03-11T13:19:26Z</time>
      </trkpt>
      <trkpt lat="44.23359" lon="4.11658">
        <ele>223</ele>
        <time>2014-03-11T13:19:49Z</time>
      </trkpt>
      <trkpt lat="44.23342" lon="4.11658">
        <ele>222</ele>
        <time>2014-03-11T13:20:17Z</time>
      </trkpt>
      <trkpt lat="44.23325" lon="4.11667">
        <ele>233</ele>
        <time>2014-03-11T13:20:39Z</time>
      </trkpt>
      <trkpt lat="44.23308" lon="4.11671">
        <ele>233</ele>
        <time>2014-03-11T13:21:05Z</time>
      </trkpt>
      <trkpt lat="44.2329" lon="4.11675">
        <ele>240</ele>
        <time>2014-03-11T13:21:27Z</time>
      </trkpt>
      <trkpt lat="44.23294" lon="4.11699">
        <ele>240</ele>
        <time>2014-03-11T13:22:14Z</time>
      </trkpt>
      <trkpt lat="44.23293" lon="4.11723">
        <ele>240</ele>
        <time>2014-03-11T13:22:42Z</time>
      </trkpt>
      <trkpt lat="44.23294" lon="4.11748">
        <ele>245</ele>
        <time>2014-03-11T13:23:05Z</time>
      </trkpt>
      <trkpt lat="44.23296" lon="4.11772">
        <ele>255</ele>
        <time>2014-03-11T13:23:33Z</time>
      </trkpt>
      <trkpt lat="44.23294" lon="4.11797">
        <ele>250</ele>
        <time>2014-03-11T13:24:12Z</time>
      </trkpt>
      <trkpt lat="44.23288" lon="4.1182">
        <ele>258</ele>
        <time>2014-03-11T13:24:51Z</time>
      </trkpt>
      <trkpt lat="44.23282" lon="4.11843">
        <ele>261</ele>
        <time>2014-03-11T13:25:24Z</time>
      </trkpt>
      <trkpt lat="44.2327" lon="4.11861">
        <ele>264</ele>
        <time>2014-03-11T13:27:19Z</time>
      </trkpt>
      <trkpt lat="44.23256" lon="4.11877">
        <ele>275</ele>
        <time>2014-03-11T13:27:56Z</time>
      </trkpt>
      <trkpt lat="44.23258" lon="4.11901">
        <ele>267</ele>
        <time>2014-03-11T13:29:43Z</time>
      </trkpt>
      <trkpt lat="44.23242" lon="4.11912">
        <ele>260</ele>
        <time>2014-03-11T13:30:16Z</time>
      </trkpt>
      <trkpt lat="44.23225" lon="4.11916">
        <ele>263</ele>
        <time>2014-03-11T13:30:34Z</time>
      </trkpt>
      <trkpt lat="44.23208" lon="4.11922">
        <ele>272</ele>
        <time>2014-03-11T13:30:48Z</time>
      </trkpt>
      <trkpt lat="44.23193" lon="4.11936">
        <ele>276</ele>
        <time>2014-03-11T13:31:03Z</time>
      </trkpt>
      <trkpt lat="44.23177" lon="4.11947">
        <ele>271</ele>
        <time>2014-03-11T13:31:23Z</time>
      </trkpt>
      <trkpt lat="44.23161" lon="4.11956">
        <ele>268</ele>
        <time>2014-03-11T13:31:43Z</time>
      </trkpt>
      <trkpt lat="44.23145" lon="4.11965">
        <ele>269</ele>
        <time>2014-03-11T13:32:02Z</time>
      </trkpt>
      <trkpt lat="44.23129" lon="4.11977">
        <ele>272</ele>
        <time>2014-03-11T13:32:25Z</time>
      </trkpt>
      <trkpt lat="44.23119" lon="4.11997">
        <ele>271</ele>
        <time>2014-03-11T13:32:46Z</time>
      </trkpt>
      <trkpt lat="44.23114" lon="4.1202">
        <ele>274</ele>
        <time>2014-03-11T13:33:07Z</time>
      </trkpt>
      <trkpt lat="44.23109" lon="4.12043">
        <ele>275</ele>
        <time>2014-03-11T13:33:28Z</time>
      </trkpt>
      <trkpt lat="44.23105" lon="4.12066">
        <ele>277</ele>
        <time>2014-03-11T13:33:48Z</time>
      </trkpt>
      <trkpt lat="44.23103" lon="4.12091">
        <ele>280</ele>
        <time>2014-03-11T13:34:08Z</time>
      </trkpt>
      <trkpt lat="44.23099" lon="4.12115">
        <ele>281</ele>
        <time>2014-03-11T13:34:28Z</time>
      </trkpt>
      <trkpt lat="44.23096" lon="4.12139">
        <ele>282</ele>
        <time>2014-03-11T13:34:49Z</time>
      </trkpt>
      <trkpt lat="44.23091" lon="4.12163">
        <ele>284</ele>
        <time>2014-03-11T13:35:09Z</time>
      </trkpt>
      <trkpt lat="44.23086" lon="4.12187">
        <ele>286</ele>
        <time>2014-03-11T13:35:28Z</time>
      </trkpt>
      <trkpt lat="44.23074" lon="4.12205">
        <ele>287</ele>
        <time>2014-03-11T13:35:51Z</time>
      </trkpt>
      <trkpt lat="44.23063" lon="4.12223">
        <ele>285</ele>
        <time>2014-03-11T13:36:12Z</time>
      </trkpt>
      <trkpt lat="44.23054" lon="4.12244">
        <ele>288</ele>
        <time>2014-03-11T13:36:27Z</time>
      </trkpt>
      <trkpt lat="44.23042" lon="4.12262">
        <ele>285</ele>
        <time>2014-03-11T13:36:46Z</time>
      </trkpt>
      <trkpt lat="44.23029" lon="4.12277">
        <ele>283</ele>
        <time>2014-03-11T13:37:04Z</time>
      </trkpt>
      <trkpt lat="44.23016" lon="4.12294">
        <ele>284</ele>
        <time>2014-03-11T13:37:21Z</time>
      </trkpt>
      <trkpt lat="44.23004" lon="4.12311">
        <ele>284</ele>
        <time>2014-03-11T13:37:38Z</time>
      </trkpt>
      <trkpt lat="44.2299" lon="4.12326">
        <ele>281</ele>
        <time>2014-03-11T13:37:59Z</time>
      </trkpt>
      <trkpt lat="44.22982" lon="4.12347">
        <ele>283</ele>
        <time>2014-03-11T13:38:20Z</time>
      </trkpt>
      <trkpt lat="44.22994" lon="4.12364">
        <ele>300</ele>
        <time>2014-03-11T13:38:48Z</time>
      </trkpt>
      <trkpt lat="44.23009" lon="4.12376">
        <ele>306</ele>
        <time>2014-03-11T13:39:12Z</time>
      </trkpt>
      <trkpt lat="44.23018" lon="4.12398">
        <ele>313</ele>
        <time>2014-03-11T13:39:41Z</time>
      </trkpt>
      <trkpt lat="44.23017" lon="4.12422">
        <ele>314</ele>
        <time>2014-03-11T13:40:09Z</time>
      </trkpt>
      <trkpt lat="44.23027" lon="4.12443">
        <ele>323</ele>
        <time>2014-03-11T13:40:56Z</time>
      </trkpt>
      <trkpt lat="44.23022" lon="4.12467">
        <ele>330</ele>
        <time>2014-03-11T13:45:15Z</time>
      </trkpt>
      <trkpt lat="44.23004" lon="4.1246">
        <ele>325</ele>
        <time>2014-03-11T13:45:31Z</time>
      </trkpt>
      <trkpt lat="44.22991" lon="4.12443">
        <ele>322</ele>
        <time>2014-03-11T13:45:48Z</time>
      </trkpt>
      <trkpt lat="44.22973" lon="4.12441">
        <ele>321</ele>
        <time>2014-03-11T13:46:09Z</time>
      </trkpt>
      <trkpt lat="44.22956" lon="4.12447">
        <ele>323</ele>
        <time>2014-03-11T13:46:29Z</time>
      </trkpt>
      <trkpt lat="44.22941" lon="4.12459">
        <ele>329</ele>
        <time>2014-03-11T13:46:45Z</time>
      </trkpt>
      <trkpt lat="44.22926" lon="4.12473">
        <ele>337</ele>
        <time>2014-03-11T13:47:01Z</time>
      </trkpt>
      <trkpt lat="44.22915" lon="4.12491">
        <ele>341</ele>
        <time>2014-03-11T13:47:19Z</time>
      </trkpt>
      <trkpt lat="44.22906" lon="4.12512">
        <ele>342</ele>
        <time>2014-03-11T13:47:36Z</time>
      </trkpt>
      <trkpt lat="44.22898" lon="4.12533">
        <ele>339</ele>
        <time>2014-03-11T13:47:52Z</time>
      </trkpt>
      <trkpt lat="44.22891" lon="4.12555">
        <ele>344</ele>
        <time>2014-03-11T13:48:09Z</time>
      </trkpt>
      <trkpt lat="44.22886" lon="4.12578">
        <ele>350</ele>
        <time>2014-03-11T13:48:27Z</time>
      </trkpt>
      <trkpt lat="44.22875" lon="4.12597">
        <ele>344</ele>
        <time>2014-03-11T13:48:43Z</time>
      </trkpt>
      <trkpt lat="44.22858" lon="4.12593">
        <ele>347</ele>
        <time>2014-03-11T13:49:02Z</time>
      </trkpt>
      <trkpt lat="44.22851" lon="4.12571">
        <ele>343</ele>
        <time>2014-03-11T13:49:18Z</time>
      </trkpt>
      <trkpt lat="44.22847" lon="4.12547">
        <ele>342</ele>
        <time>2014-03-11T13:49:32Z</time>
      </trkpt>
      <trkpt lat="44.22845" lon="4.12523">
        <ele>343</ele>
        <time>2014-03-11T13:49:49Z</time>
      </trkpt>
      <trkpt lat="44.22838" lon="4.125">
        <ele>342</ele>
        <time>2014-03-11T13:50:05Z</time>
      </trkpt>
      <trkpt lat="44.22832" lon="4.12477">
        <ele>344</ele>
        <time>2014-03-11T13:50:22Z</time>
      </trkpt>
      <trkpt lat="44.22829" lon="4.12453">
        <ele>342</ele>
        <time>2014-03-11T13:50:39Z</time>
      </trkpt>
      <trkpt lat="44.2283" lon="4.12428">
        <ele>339</ele>
        <time>2014-03-11T13:50:57Z</time>
      </trkpt>
      <trkpt lat="44.22831" lon="4.12404">
        <ele>340</ele>
        <time>2014-03-11T13:51:15Z</time>
      </trkpt>
      <trkpt lat="44.2283" lon="4.1238">
        <ele>340</ele>
        <time>2014-03-11T13:51:31Z</time>
      </trkpt>
      <trkpt lat="44.22841" lon="4.12361">
        <ele>345</ele>
        <time>2014-03-11T13:51:48Z</time>
      </trkpt>
      <trkpt lat="44.22855" lon="4.12346">
        <ele>345</ele>
        <time>2014-03-11T13:52:05Z</time>
      </trkpt>
      <trkpt lat="44.22865" lon="4.12327">
        <ele>345</ele>
        <time>2014-03-11T13:52:21Z</time>
      </trkpt>
      <trkpt lat="44.22874" lon="4.12305">
        <ele>346</ele>
        <time>2014-03-11T13:52:38Z</time>
      </trkpt>
      <trkpt lat="44.2288" lon="4.12283">
        <ele>351</ele>
        <time>2014-03-11T13:52:53Z</time>
      </trkpt>
      <trkpt lat="44.22881" lon="4.12259">
        <ele>354</ele>
        <time>2014-03-11T13:53:09Z</time>
      </trkpt>
      <trkpt lat="44.22875" lon="4.12237">
        <ele>351</ele>
        <time>2014-03-11T13:53:25Z</time>
      </trkpt>
      <trkpt lat="44.22876" lon="4.12213">
        <ele>350</ele>
        <time>2014-03-11T13:53:42Z</time>
      </trkpt>
      <trkpt lat="44.22887" lon="4.12194">
        <ele>348</ele>
        <time>2014-03-11T13:54:00Z</time>
      </trkpt>
      <trkpt lat="44.22902" lon="4.12183">
        <ele>354</ele>
        <time>2014-03-11T13:54:12Z</time>
      </trkpt>
      <trkpt lat="44.22917" lon="4.12172">
        <ele>353</ele>
        <time>2014-03-11T13:54:28Z</time>
      </trkpt>
      <trkpt lat="44.22933" lon="4.12161">
        <ele>353</ele>
        <time>2014-03-11T13:54:47Z</time>
      </trkpt>
      <trkpt lat="44.22947" lon="4.12147">
        <ele>352</ele>
        <time>2014-03-11T13:55:03Z</time>
      </trkpt>
      <trkpt lat="44.22957" lon="4.12127">
        <ele>350</ele>
        <time>2014-03-11T13:55:22Z</time>
      </trkpt>
      <trkpt lat="44.22961" lon="4.12103">
        <ele>354</ele>
        <time>2014-03-11T13:55:38Z</time>
      </trkpt>
      <trkpt lat="44.22966" lon="4.12079">
        <ele>359</ele>
        <time>2014-03-11T13:55:53Z</time>
      </trkpt>
      <trkpt lat="44.22967" lon="4.12055">
        <ele>361</ele>
        <time>2014-03-11T13:56:09Z</time>
      </trkpt>
      <trkpt lat="44.22966" lon="4.12031">
        <ele>360</ele>
        <time>2014-03-11T13:56:26Z</time>
      </trkpt>
      <trkpt lat="44.22964" lon="4.12007">
        <ele>360</ele>
        <time>2014-03-11T13:56:41Z</time>
      </trkpt>
      <trkpt lat="44.22963" lon="4.11982">
        <ele>359</ele>
        <time>2014-03-11T13:56:59Z</time>
      </trkpt>
      <trkpt lat="44.22958" lon="4.11958">
        <ele>359</ele>
        <time>2014-03-11T13:57:15Z</time>
      </trkpt>
      <trkpt lat="44.22951" lon="4.11936">
        <ele>358</ele>
        <time>2014-03-11T13:57:32Z</time>
      </trkpt>
      <trkpt lat="44.22945" lon="4.11914">
        <ele>357</ele>
        <time>2014-03-11T13:57:47Z</time>
      </trkpt>
      <trkpt lat="44.2294" lon="4.1189">
        <ele>359</ele>
        <time>2014-03-11T13:58:03Z</time>
      </trkpt>
      <trkpt lat="44.22938" lon="4.11865">
        <ele>361</ele>
        <time>2014-03-11T13:58:20Z</time>
      </trkpt>
      <trkpt lat="44.22937" lon="4.11842">
        <ele>362</ele>
        <time>2014-03-11T13:58:35Z</time>
      </trkpt>
      <trkpt lat="44.22937" lon="4.11818">
        <ele>363</ele>
        <time>2014-03-11T13:58:50Z</time>
      </trkpt>
      <trkpt lat="44.22939" lon="4.11793">
        <ele>362</ele>
        <time>2014-03-11T13:59:09Z</time>
      </trkpt>
      <trkpt lat="44.22941" lon="4.11768">
        <ele>363</ele>
        <time>2014-03-11T13:59:26Z</time>
      </trkpt>
      <trkpt lat="44.22943" lon="4.11744">
        <ele>363</ele>
        <time>2014-03-11T13:59:43Z</time>
      </trkpt>
      <trkpt lat="44.22941" lon="4.11719">
        <ele>360</ele>
        <time>2014-03-11T14:00:00Z</time>
      </trkpt>
      <trkpt lat="44.22933" lon="4.11697">
        <ele>358</ele>
        <time>2014-03-11T14:00:15Z</time>
      </trkpt>
      <trkpt lat="44.22923" lon="4.11678">
        <ele>357</ele>
        <time>2014-03-11T14:00:31Z</time>
      </trkpt>
      <trkpt lat="44.22914" lon="4.11658">
        <ele>358</ele>
        <time>2014-03-11T14:00:48Z</time>
      </trkpt>
      <trkpt lat="44.22903" lon="4.11638">
        <ele>360</ele>
        <time>2014-03-11T14:01:04Z</time>
      </trkpt>
      <trkpt lat="44.22894" lon="4.11617">
        <ele>363</ele>
        <time>2014-03-11T14:01:19Z</time>
      </trkpt>
      <trkpt lat="44.22876" lon="4.11612">
        <ele>366</ele>
        <time>2014-03-11T14:01:53Z</time>
      </trkpt>
      <trkpt lat="44.22869" lon="4.1159">
        <ele>370</ele>
        <time>2014-03-11T14:06:30Z</time>
      </trkpt>
      <trkpt lat="44.22853" lon="4.11581">
        <ele>372</ele>
        <time>2014-03-11T14:06:53Z</time>
      </trkpt>
      <trkpt lat="44.22836" lon="4.11572">
        <ele>377</ele>
        <time>2014-03-11T14:07:17Z</time>
      </trkpt>
      <trkpt lat="44.22819" lon="4.11572">
        <ele>377</ele>
        <time>2014-03-11T14:07:39Z</time>
      </trkpt>
      <trkpt lat="44.22801" lon="4.11578">
        <ele>378</ele>
        <time>2014-03-11T14:07:58Z</time>
      </trkpt>
      <trkpt lat="44.22785" lon="4.11584">
        <ele>384</ele>
        <time>2014-03-11T14:08:18Z</time>
      </trkpt>
      <trkpt lat="44.22783" lon="4.1156">
        <ele>384</ele>
        <time>2014-03-11T14:09:22Z</time>
      </trkpt>
      <trkpt lat="44.22799" lon="4.1155">
        <ele>384</ele>
        <time>2014-03-11T14:09:39Z</time>
      </trkpt>
      <trkpt lat="44.22813" lon="4.11534">
        <ele>384</ele>
        <time>2014-03-11T14:09:59Z</time>
      </trkpt>
      <trkpt lat="44.22826" lon="4.11519">
        <ele>383</ele>
        <time>2014-03-11T14:10:20Z</time>
      </trkpt>
      <trkpt lat="44.22842" lon="4.11508">
        <ele>389</ele>
        <time>2014-03-11T14:10:39Z</time>
      </trkpt>
      <trkpt lat="44.22857" lon="4.11497">
        <ele>390</ele>
        <time>2014-03-11T14:10:56Z</time>
      </trkpt>
      <trkpt lat="44.22862" lon="4.11473">
        <ele>386</ele>
        <time>2014-03-11T14:11:18Z</time>
      </trkpt>
      <trkpt lat="44.22863" lon="4.11449">
        <ele>382</ele>
        <time>2014-03-11T14:11:38Z</time>
      </trkpt>
      <trkpt lat="44.22864" lon="4.11424">
        <ele>384</ele>
        <time>2014-03-11T14:11:56Z</time>
      </trkpt>
      <trkpt lat="44.22862" lon="4.11399">
        <ele>381</ele>
        <time>2014-03-11T14:12:16Z</time>
      </trkpt>
      <trkpt lat="44.22864" lon="4.11375">
        <ele>380</ele>
        <time>2014-03-11T14:12:34Z</time>
      </trkpt>
      <trkpt lat="44.22869" lon="4.11352">
        <ele>381</ele>
        <time>2014-03-11T14:12:50Z</time>
      </trkpt>
      <trkpt lat="44.22875" lon="4.11329">
        <ele>383</ele>
        <time>2014-03-11T14:13:09Z</time>
      </trkpt>
      <trkpt lat="44.22878" lon="4.11305">
        <ele>388</ele>
        <time>2014-03-11T14:13:26Z</time>
      </trkpt>
      <trkpt lat="44.22882" lon="4.11281">
        <ele>408</ele>
        <time>2014-03-11T14:16:14Z</time>
      </trkpt>
      <trkpt lat="44.22877" lon="4.11257">
        <ele>399</ele>
        <time>2014-03-11T14:16:40Z</time>
      </trkpt>
      <trkpt lat="44.22868" lon="4.11236">
        <ele>402</ele>
        <time>2014-03-11T14:17:01Z</time>
      </trkpt>
      <trkpt lat="44.22854" lon="4.11221">
        <ele>398</ele>
        <time>2014-03-11T14:17:22Z</time>
      </trkpt>
      <trkpt lat="44.2284" lon="4.11208">
        <ele>399</ele>
        <time>2014-03-11T14:17:38Z</time>
      </trkpt>
      <trkpt lat="44.22825" lon="4.11196">
        <ele>403</ele>
        <time>2014-03-11T14:17:56Z</time>
      </trkpt>
      <trkpt lat="44.2281" lon="4.11184">
        <ele>408</ele>
        <time>2014-03-11T14:18:13Z</time>
      </trkpt>
      <trkpt lat="44.22796" lon="4.11169">
        <ele>408</ele>
        <time>2014-03-11T14:18:29Z</time>
      </trkpt>
      <trkpt lat="44.22786" lon="4.11149">
        <ele>396</ele>
        <time>2014-03-11T14:18:50Z</time>
      </trkpt>
      <trkpt lat="44.22784" lon="4.11125">
        <ele>391</ele>
        <time>2014-03-11T14:19:09Z</time>
      </trkpt>
      <trkpt lat="44.2278" lon="4.11101">
        <ele>390</ele>
        <time>2014-03-11T14:19:24Z</time>
      </trkpt>
      <trkpt lat="44.22775" lon="4.11079">
        <ele>389</ele>
        <time>2014-03-11T14:19:41Z</time>
      </trkpt>
      <trkpt lat="44.22774" lon="4.11054">
        <ele>388</ele>
        <time>2014-03-11T14:20:00Z</time>
      </trkpt>
      <trkpt lat="44.22775" lon="4.11031">
        <ele>386</ele>
        <time>2014-03-11T14:20:19Z</time>
      </trkpt>
      <trkpt lat="44.22774" lon="4.11006">
        <ele>388</ele>
        <time>2014-03-11T14:20:34Z</time>
      </trkpt>
      <trkpt lat="44.22772" lon="4.10983">
        <ele>391</ele>
        <time>2014-03-11T14:20:50Z</time>
      </trkpt>
      <trkpt lat="44.22768" lon="4.1096">
        <ele>390</ele>
        <time>2014-03-11T14:21:07Z</time>
      </trkpt>
      <trkpt lat="44.22759" lon="4.10939">
        <ele>392</ele>
        <time>2014-03-11T14:21:25Z</time>
      </trkpt>
      <trkpt lat="44.2275" lon="4.10918">
        <ele>389</ele>
        <time>2014-03-11T14:21:45Z</time>
      </trkpt>
      <trkpt lat="44.2274" lon="4.10897">
        <ele>390</ele>
        <time>2014-03-11T14:22:03Z</time>
      </trkpt>
      <trkpt lat="44.2273" lon="4.10877">
        <ele>389</ele>
        <time>2014-03-11T14:22:20Z</time>
      </trkpt>
      <trkpt lat="44.22718" lon="4.10859">
        <ele>392</ele>
        <time>2014-03-11T14:22:38Z</time>
      </trkpt>
      <trkpt lat="44.22709" lon="4.10837">
        <ele>389</ele>
        <time>2014-03-11T14:22:57Z</time>
      </trkpt>
      <trkpt lat="44.22698" lon="4.10817">
        <ele>389</ele>
        <time>2014-03-11T14:23:15Z</time>
      </trkpt>
      <trkpt lat="44.22692" lon="4.10795">
        <ele>382</ele>
        <time>2014-03-11T14:23:34Z</time>
      </trkpt>
      <trkpt lat="44.22687" lon="4.10771">
        <ele>377</ele>
        <time>2014-03-11T14:23:53Z</time>
      </trkpt>
      <trkpt lat="44.22681" lon="4.10748">
        <ele>374</ele>
        <time>2014-03-11T14:24:11Z</time>
      </trkpt>
      <trkpt lat="44.22677" lon="4.10724">
        <ele>376</ele>
        <time>2014-03-11T14:24:27Z</time>
      </trkpt>
      <trkpt lat="44.22676" lon="4.107">
        <ele>380</ele>
        <time>2014-03-11T14:24:42Z</time>
      </trkpt>
      <trkpt lat="44.22674" lon="4.10675">
        <ele>378</ele>
        <time>2014-03-11T14:25:02Z</time>
      </trkpt>
      <trkpt lat="44.22671" lon="4.10651">
        <ele>398</ele>
        <time>2014-03-11T14:26:15Z</time>
      </trkpt>
      <trkpt lat="44.22671" lon="4.10626">
        <ele>383</ele>
        <time>2014-03-11T14:27:27Z</time>
      </trkpt>
      <trkpt lat="44.22671" lon="4.10601">
        <ele>378</ele>
        <time>2014-03-11T14:27:50Z</time>
      </trkpt>
      <trkpt lat="44.2267" lon="4.10577">
        <ele>376</ele>
        <time>2014-03-11T14:28:10Z</time>
      </trkpt>
      <trkpt lat="44.22677" lon="4.10554">
        <ele>373</ele>
        <time>2014-03-11T14:28:30Z</time>
      </trkpt>
      <trkpt lat="44.22689" lon="4.10537">
        <ele>376</ele>
        <time>2014-03-11T14:28:49Z</time>
      </trkpt>
      <trkpt lat="44.22704" lon="4.10523">
        <ele>371</ele>
        <time>2014-03-11T14:29:11Z</time>
      </trkpt>
      <trkpt lat="44.22719" lon="4.10512">
        <ele>367</ele>
        <time>2014-03-11T14:29:33Z</time>
      </trkpt>
      <trkpt lat="44.22737" lon="4.10508">
        <ele>367</ele>
        <time>2014-03-11T14:29:51Z</time>
      </trkpt>
      <trkpt lat="44.22754" lon="4.10502">
        <ele>369</ele>
        <time>2014-03-11T14:30:09Z</time>
      </trkpt>
      <trkpt lat="44.22771" lon="4.105">
        <ele>369</ele>
        <time>2014-03-11T14:30:26Z</time>
      </trkpt>
      <trkpt lat="44.22788" lon="4.10499">
        <ele>370</ele>
        <time>2014-03-11T14:30:42Z</time>
      </trkpt>
      <trkpt lat="44.22805" lon="4.10499">
        <ele>368</ele>
        <time>2014-03-11T14:31:01Z</time>
      </trkpt>
      <trkpt lat="44.22823" lon="4.10503">
        <ele>366</ele>
        <time>2014-03-11T14:31:20Z</time>
      </trkpt>
      <trkpt lat="44.2284" lon="4.10508">
        <ele>366</ele>
        <time>2014-03-11T14:31:37Z</time>
      </trkpt>
      <trkpt lat="44.22856" lon="4.10513">
        <ele>366</ele>
        <time>2014-03-11T14:31:56Z</time>
      </trkpt>
      <trkpt lat="44.22874" lon="4.10518">
        <ele>363</ele>
        <time>2014-03-11T14:32:16Z</time>
      </trkpt>
      <trkpt lat="44.22877" lon="4.10494">
        <ele>358</ele>
        <time>2014-03-11T14:32:52Z</time>
      </trkpt>
      <trkpt lat="44.22867" lon="4.10474">
        <ele>363</ele>
        <time>2014-03-11T14:33:10Z</time>
      </trkpt>
      <trkpt lat="44.22858" lon="4.10453">
        <ele>356</ele>
        <time>2014-03-11T14:33:28Z</time>
      </trkpt>
      <trkpt lat="44.22848" lon="4.10433">
        <ele>361</ele>
        <time>2014-03-11T14:33:43Z</time>
      </trkpt>
      <trkpt lat="44.22835" lon="4.10417">
        <ele>357</ele>
        <time>2014-03-11T14:34:02Z</time>
      </trkpt>
      <trkpt lat="44.22824" lon="4.10399">
        <ele>357</ele>
        <time>2014-03-11T14:34:22Z</time>
      </trkpt>
      <trkpt lat="44.22812" lon="4.1038">
        <ele>350</ele>
        <time>2014-03-11T14:34:44Z</time>
      </trkpt>
      <trkpt lat="44.228" lon="4.10362">
        <ele>345</ele>
        <time>2014-03-11T14:35:05Z</time>
      </trkpt>
      <trkpt lat="44.22789" lon="4.10343">
        <ele>353</ele>
        <time>2014-03-11T14:35:20Z</time>
      </trkpt>
      <trkpt lat="44.2278" lon="4.10322">
        <ele>356</ele>
        <time>2014-03-11T14:35:36Z</time>
      </trkpt>
      <trkpt lat="44.22778" lon="4.10297">
        <ele>348</ele>
        <time>2014-03-11T14:35:56Z</time>
      </trkpt>
      <trkpt lat="44.2278" lon="4.10274">
        <ele>342</ele>
        <time>2014-03-11T14:36:17Z</time>
      </trkpt>
      <trkpt lat="44.22787" lon="4.10251">
        <ele>346</ele>
        <time>2014-03-11T14:36:36Z</time>
      </trkpt>
      <trkpt lat="44.22799" lon="4.10233">
        <ele>358</ele>
        <time>2014-03-11T14:36:56Z</time>
      </trkpt>
      <trkpt lat="44.22816" lon="4.1023">
        <ele>354</ele>
        <time>2014-03-11T14:37:14Z</time>
      </trkpt>
      <trkpt lat="44.22833" lon="4.1023">
        <ele>356</ele>
        <time>2014-03-11T14:37:29Z</time>
      </trkpt>
      <trkpt lat="44.22842" lon="4.1021">
        <ele>350</ele>
        <time>2014-03-11T14:37:53Z</time>
      </trkpt>
      <trkpt lat="44.22836" lon="4.10187">
        <ele>354</ele>
        <time>2014-03-11T14:38:09Z</time>
      </trkpt>
      <trkpt lat="44.22831" lon="4.10164">
        <ele>358</ele>
        <time>2014-03-11T14:38:26Z</time>
      </trkpt>
      <trkpt lat="44.22828" lon="4.1014">
        <ele>353</ele>
        <time>2014-03-11T14:42:30Z</time>
      </trkpt>
      <trkpt lat="44.22821" lon="4.10117">
        <ele>356</ele>
        <time>2014-03-11T14:42:47Z</time>
      </trkpt>
      <trkpt lat="44.22814" lon="4.10096">
        <ele>357</ele>
        <time>2014-03-11T14:43:04Z</time>
      </trkpt>
      <trkpt lat="44.22809" lon="4.10073">
        <ele>358</ele>
        <time>2014-03-11T14:43:21Z</time>
      </trkpt>
      <trkpt lat="44.22806" lon="4.1005">
        <ele>354</ele>
        <time>2014-03-11T14:43:37Z</time>
      </trkpt>
      <trkpt lat="44.22806" lon="4.10025">
        <ele>350</ele>
        <time>2014-03-11T14:43:54Z</time>
      </trkpt>
      <trkpt lat="44.22806" lon="4.10001">
        <ele>343</ele>
        <time>2014-03-11T14:44:12Z</time>
      </trkpt>
      <trkpt lat="44.22805" lon="4.09978">
        <ele>346</ele>
        <time>2014-03-11T14:44:25Z</time>
      </trkpt>
      <trkpt lat="44.22812" lon="4.09955">
        <ele>344</ele>
        <time>2014-03-11T14:44:40Z</time>
      </trkpt>
      <trkpt lat="44.22825" lon="4.09938">
        <ele>342</ele>
        <time>2014-03-11T14:44:55Z</time>
      </trkpt>
      <trkpt lat="44.22835" lon="4.09918">
        <ele>350</ele>
        <time>2014-03-11T14:45:09Z</time>
      </trkpt>
      <trkpt lat="44.22847" lon="4.09901">
        <ele>352</ele>
        <time>2014-03-11T14:45:25Z</time>
      </trkpt>
      <trkpt lat="44.22862" lon="4.09887">
        <ele>352</ele>
        <time>2014-03-11T14:45:41Z</time>
      </trkpt>
      <trkpt lat="44.22877" lon="4.09873">
        <ele>353</ele>
        <time>2014-03-11T14:45:56Z</time>
      </trkpt>
      <trkpt lat="44.22891" lon="4.09859">
        <ele>355</ele>
        <time>2014-03-11T14:46:11Z</time>
      </trkpt>
      <trkpt lat="44.22904" lon="4.09844">
        <ele>353</ele>
        <time>2014-03-11T14:46:27Z</time>
      </trkpt>
      <trkpt lat="44.22919" lon="4.09832">
        <ele>356</ele>
        <time>2014-03-11T14:46:41Z</time>
      </trkpt>
      <trkpt lat="44.22935" lon="4.09823">
        <ele>355</ele>
        <time>2014-03-11T14:46:56Z</time>
      </trkpt>
      <trkpt lat="44.22952" lon="4.09816">
        <ele>354</ele>
        <time>2014-03-11T14:47:11Z</time>
      </trkpt>
      <trkpt lat="44.22968" lon="4.09808">
        <ele>355</ele>
        <time>2014-03-11T14:47:27Z</time>
      </trkpt>
      <trkpt lat="44.22986" lon="4.09802">
        <ele>354</ele>
        <time>2014-03-11T14:47:41Z</time>
      </trkpt>
      <trkpt lat="44.23002" lon="4.09795">
        <ele>351</ele>
        <time>2014-03-11T14:47:57Z</time>
      </trkpt>
      <trkpt lat="44.23019" lon="4.09789">
        <ele>347</ele>
        <time>2014-03-11T14:48:13Z</time>
      </trkpt>
      <trkpt lat="44.23036" lon="4.09784">
        <ele>349</ele>
        <time>2014-03-11T14:48:28Z</time>
      </trkpt>
      <trkpt lat="44.23053" lon="4.09781">
        <ele>347</ele>
        <time>2014-03-11T14:48:42Z</time>
      </trkpt>
      <trkpt lat="44.2307" lon="4.09776">
        <ele>348</ele>
        <time>2014-03-11T14:48:58Z</time>
      </trkpt>
      <trkpt lat="44.23088" lon="4.09779">
        <ele>351</ele>
        <time>2014-03-11T14:49:26Z</time>
      </trkpt>
      <trkpt lat="44.231" lon="4.09798">
        <ele>354</ele>
        <time>2014-03-11T14:50:02Z</time>
      </trkpt>
      <trkpt lat="44.23104" lon="4.09822">
        <ele>364</ele>
        <time>2014-03-11T14:50:38Z</time>
      </trkpt>
      <trkpt lat="44.23106" lon="4.09846">
        <ele>366</ele>
        <time>2014-03-11T14:51:17Z</time>
      </trkpt>
      <trkpt lat="44.23114" lon="4.09869">
        <ele>373</ele>
        <time>2014-03-11T14:51:58Z</time>
      </trkpt>
      <trkpt lat="44.2312" lon="4.0989">
        <ele>369</ele>
        <time>2014-03-11T14:52:34Z</time>
      </trkpt>
      <trkpt lat="44.23102" lon="4.09891">
        <ele>371</ele>
        <time>2014-03-11T14:53:31Z</time>
      </trkpt>
      <trkpt lat="44.23084" lon="4.09896">
        <ele>372</ele>
        <time>2014-03-11T14:53:57Z</time>
      </trkpt>
      <trkpt lat="44.23069" lon="4.09908">
        <ele>365</ele>
        <time>2014-03-11T14:54:25Z</time>
      </trkpt>
      <trkpt lat="44.23051" lon="4.09908">
        <ele>378</ele>
        <time>2014-03-11T14:54:45Z</time>
      </trkpt>
      <trkpt lat="44.23035" lon="4.09917">
        <ele>378</ele>
        <time>2014-03-11T14:55:08Z</time>
      </trkpt>
      <trkpt lat="44.23018" lon="4.09926">
        <ele>379</ele>
        <time>2014-03-11T14:55:42Z</time>
      </trkpt>
      <trkpt lat="44.23004" lon="4.09941">
        <ele>384</ele>
        <time>2014-03-11T14:56:16Z</time>
      </trkpt>
      <trkpt lat="44.23021" lon="4.0995">
        <ele>399</ele>
        <time>2014-03-11T14:59:25Z</time>
      </trkpt>
      <trkpt lat="44.23038" lon="4.09952">
        <ele>401</ele>
        <time>2014-03-11T14:59:46Z</time>
      </trkpt>
      <trkpt lat="44.23054" lon="4.09962">
        <ele>402</ele>
        <time>2014-03-11T15:00:09Z</time>
      </trkpt>
      <trkpt lat="44.2307" lon="4.0997">
        <ele>407</ele>
        <time>2014-03-11T15:00:31Z</time>
      </trkpt>
      <trkpt lat="44.23086" lon="4.0998">
        <ele>409</ele>
        <time>2014-03-11T15:00:53Z</time>
      </trkpt>
      <trkpt lat="44.23103" lon="4.09985">
        <ele>416</ele>
        <time>2014-03-11T15:01:13Z</time>
      </trkpt>
      <trkpt lat="44.23119" lon="4.09994">
        <ele>422</ele>
        <time>2014-03-11T15:01:35Z</time>
      </trkpt>
      <trkpt lat="44.23136" lon="4.10002">
        <ele>420</ele>
        <time>2014-03-11T15:01:57Z</time>
      </trkpt>
      <trkpt lat="44.23153" lon="4.10009">
        <ele>418</ele>
        <time>2014-03-11T15:02:21Z</time>
      </trkpt>
      <trkpt lat="44.2317" lon="4.10013">
        <ele>417</ele>
        <time>2014-03-11T15:02:44Z</time>
      </trkpt>
      <trkpt lat="44.23188" lon="4.1001">
        <ele>418</ele>
        <time>2014-03-11T15:03:16Z</time>
      </trkpt>
      <trkpt lat="44.23204" lon="4.09999">
        <ele>419</ele>
        <time>2014-03-11T15:03:39Z</time>
      </trkpt>
      <trkpt lat="44.23216" lon="4.09981">
        <ele>422</ele>
        <time>2014-03-11T15:04:10Z</time>
      </trkpt>
      <trkpt lat="44.23229" lon="4.09963">
        <ele>420</ele>
        <time>2014-03-11T15:04:36Z</time>
      </trkpt>
      <trkpt lat="44.2324" lon="4.09944">
        <ele>423</ele>
        <time>2014-03-11T15:04:59Z</time>
      </trkpt>
      <trkpt lat="44.23256" lon="4.09932">
        <ele>423</ele>
        <time>2014-03-11T15:05:24Z</time>
      </trkpt>
      <trkpt lat="44.23271" lon="4.09922">
        <ele>423</ele>
        <time>2014-03-11T15:05:45Z</time>
      </trkpt>
      <trkpt lat="44.23288" lon="4.09913">
        <ele>427</ele>
        <time>2014-03-11T15:06:04Z</time>
      </trkpt>
      <trkpt lat="44.23303" lon="4.09901">
        <ele>430</ele>
        <time>2014-03-11T15:06:25Z</time>
      </trkpt>
      <trkpt lat="44.2332" lon="4.09895">
        <ele>430</ele>
        <time>2014-03-11T15:06:44Z</time>
      </trkpt>
      <trkpt lat="44.23336" lon="4.09885">
        <ele>430</ele>
        <time>2014-03-11T15:07:07Z</time>
      </trkpt>
      <trkpt lat="44.23352" lon="4.09875">
        <ele>429</ele>
        <time>2014-03-11T15:07:27Z</time>
      </trkpt>
      <trkpt lat="44.23367" lon="4.09864">
        <ele>427</ele>
        <time>2014-03-11T15:07:46Z</time>
      </trkpt>
      <trkpt lat="44.23384" lon="4.09854">
        <ele>425</ele>
        <time>2014-03-11T15:08:06Z</time>
      </trkpt>
      <trkpt lat="44.23401" lon="4.09847">
        <ele>426</ele>
        <time>2014-03-11T15:08:26Z</time>
      </trkpt>
      <trkpt lat="44.23418" lon="4.09841">
        <ele>434</ele>
        <time>2014-03-11T15:08:55Z</time>
      </trkpt>
      <trkpt lat="44.23436" lon="4.09837">
        <ele>434</ele>
        <time>2014-03-11T15:09:16Z</time>
      </trkpt>
      <trkpt lat="44.23453" lon="4.09832">
        <ele>432</ele>
        <time>2014-03-11T15:09:39Z</time>
      </trkpt>
      <trkpt lat="44.2347" lon="4.09826">
        <ele>430</ele>
        <time>2014-03-11T15:10:00Z</time>
      </trkpt>
      <trkpt lat="44.23487" lon="4.09818">
        <ele>432</ele>
        <time>2014-03-11T15:10:22Z</time>
      </trkpt>
      <trkpt lat="44.23504" lon="4.09814">
        <ele>435</ele>
        <time>2014-03-11T15:10:42Z</time>
      </trkpt>
      <trkpt lat="44.2352" lon="4.09806">
        <ele>434</ele>
        <time>2014-03-11T15:11:05Z</time>
      </trkpt>
      <trkpt lat="44.23537" lon="4.09798">
        <ele>434</ele>
        <time>2014-03-11T15:11:26Z</time>
      </trkpt>
      <trkpt lat="44.23554" lon="4.09793">
        <ele>433</ele>
        <time>2014-03-11T15:12:17Z</time>
      </trkpt>
      <trkpt lat="44.23561" lon="4.09816">
        <ele>439</ele>
        <time>2014-03-11T15:17:11Z</time>
      </trkpt>
      <trkpt lat="44.23563" lon="4.0984">
        <ele>438</ele>
        <time>2014-03-11T15:17:27Z</time>
      </trkpt>
      <trkpt lat="44.23567" lon="4.09863">
        <ele>438</ele>
        <time>2014-03-11T15:17:43Z</time>
      </trkpt>
      <trkpt lat="44.23569" lon="4.09887">
        <ele>440</ele>
        <time>2014-03-11T15:17:59Z</time>
      </trkpt>
      <trkpt lat="44.23572" lon="4.09911">
        <ele>442</ele>
        <time>2014-03-11T15:18:15Z</time>
      </trkpt>
      <trkpt lat="44.23574" lon="4.09935">
        <ele>443</ele>
        <time>2014-03-11T15:18:31Z</time>
      </trkpt>
      <trkpt lat="44.23576" lon="4.09959">
        <ele>446</ele>
        <time>2014-03-11T15:18:48Z</time>
      </trkpt>
      <trkpt lat="44.23577" lon="4.09983">
        <ele>448</ele>
        <time>2014-03-11T15:19:05Z</time>
      </trkpt>
      <trkpt lat="44.23579" lon="4.10008">
        <ele>451</ele>
        <time>2014-03-11T15:19:23Z</time>
      </trkpt>
      <trkpt lat="44.23587" lon="4.10029">
        <ele>461</ele>
        <time>2014-03-11T15:19:40Z</time>
      </trkpt>
      <trkpt lat="44.23586" lon="4.10054">
        <ele>469</ele>
        <time>2014-03-11T15:19:59Z</time>
      </trkpt>
      <trkpt lat="44.2358" lon="4.10077">
        <ele>477</ele>
        <time>2014-03-11T15:20:16Z</time>
      </trkpt>
      <trkpt lat="44.2357" lon="4.10096">
        <ele>478</ele>
        <time>2014-03-11T15:20:32Z</time>
      </trkpt>
      <trkpt lat="44.23557" lon="4.10111">
        <ele>475</ele>
        <time>2014-03-11T15:20:47Z</time>
      </trkpt>
      <trkpt lat="44.23545" lon="4.10129">
        <ele>472</ele>
        <time>2014-03-11T15:21:04Z</time>
      </trkpt>
      <trkpt lat="44.23531" lon="4.10145">
        <ele>470</ele>
        <time>2014-03-11T15:21:42Z</time>
      </trkpt>
      <trkpt lat="44.23532" lon="4.1012">
        <ele>466</ele>
        <time>2014-03-11T15:22:01Z</time>
      </trkpt>
      <trkpt lat="44.23538" lon="4.10096">
        <ele>465</ele>
        <time>2014-03-11T15:22:23Z</time>
      </trkpt>
      <trkpt lat="44.23542" lon="4.10072">
        <ele>466</ele>
        <time>2014-03-11T15:24:24Z</time>
      </trkpt>
      <trkpt lat="44.23543" lon="4.10048">
        <ele>471</ele>
        <time>2014-03-11T15:25:14Z</time>
      </trkpt>
      <trkpt lat="44.23541" lon="4.10025">
        <ele>471</ele>
        <time>2014-03-11T15:25:36Z</time>
      </trkpt>
      <trkpt lat="44.23534" lon="4.10003">
        <ele>472</ele>
        <time>2014-03-11T15:25:56Z</time>
      </trkpt>
      <trkpt lat="44.23525" lon="4.09981">
        <ele>473</ele>
        <time>2014-03-11T15:26:17Z</time>
      </trkpt>
      <trkpt lat="44.23511" lon="4.09966">
        <ele>477</ele>
        <time>2014-03-11T15:26:38Z</time>
      </trkpt>
      <trkpt lat="44.23495" lon="4.09957">
        <ele>477</ele>
        <time>2014-03-11T15:27:00Z</time>
      </trkpt>
      <trkpt lat="44.23477" lon="4.09963">
        <ele>479</ele>
        <time>2014-03-11T15:27:20Z</time>
      </trkpt>
      <trkpt lat="44.23461" lon="4.09972">
        <ele>483</ele>
        <time>2014-03-11T15:27:40Z</time>
      </trkpt>
      <trkpt lat="44.23445" lon="4.09982">
        <ele>487</ele>
        <time>2014-03-11T15:28:02Z</time>
      </trkpt>
      <trkpt lat="44.23429" lon="4.09994">
        <ele>486</ele>
        <time>2014-03-11T15:28:23Z</time>
      </trkpt>
      <trkpt lat="44.23415" lon="4.10009">
        <ele>489</ele>
        <time>2014-03-11T15:28:45Z</time>
      </trkpt>
      <trkpt lat="44.234" lon="4.10022">
        <ele>492</ele>
        <time>2014-03-11T15:29:06Z</time>
      </trkpt>
      <trkpt lat="44.23384" lon="4.10032">
        <ele>498</ele>
        <time>2014-03-11T15:29:28Z</time>
      </trkpt>
      <trkpt lat="44.23371" lon="4.10048">
        <ele>494</ele>
        <time>2014-03-11T15:29:48Z</time>
      </trkpt>
      <trkpt lat="44.23358" lon="4.10064">
        <ele>495</ele>
        <time>2014-03-11T15:30:08Z</time>
      </trkpt>
      <trkpt lat="44.23345" lon="4.10081">
        <ele>495</ele>
        <time>2014-03-11T15:30:28Z</time>
      </trkpt>
      <trkpt lat="44.2333" lon="4.10095">
        <ele>498</ele>
        <time>2014-03-11T15:30:49Z</time>
      </trkpt>
      <trkpt lat="44.23317" lon="4.10111">
        <ele>500</ele>
        <time>2014-03-11T15:31:09Z</time>
      </trkpt>
      <trkpt lat="44.23304" lon="4.10126">
        <ele>500</ele>
        <time>2014-03-11T15:31:28Z</time>
      </trkpt>
      <trkpt lat="44.2329" lon="4.1014">
        <ele>504</ele>
        <time>2014-03-11T15:31:47Z</time>
      </trkpt>
      <trkpt lat="44.23276" lon="4.10156">
        <ele>507</ele>
        <time>2014-03-11T15:32:05Z</time>
      </trkpt>
      <trkpt lat="44.23263" lon="4.10171">
        <ele>508</ele>
        <time>2014-03-11T15:32:23Z</time>
      </trkpt>
      <trkpt lat="44.23249" lon="4.10184">
        <ele>509</ele>
        <time>2014-03-11T15:32:42Z</time>
      </trkpt>
      <trkpt lat="44.23235" lon="4.10199">
        <ele>507</ele>
        <time>2014-03-11T15:33:01Z</time>
      </trkpt>
      <trkpt lat="44.23222" lon="4.10216">
        <ele>507</ele>
        <time>2014-03-11T15:33:17Z</time>
      </trkpt>
      <trkpt lat="44.2321" lon="4.10234">
        <ele>504</ele>
        <time>2014-03-11T15:33:54Z</time>
      </trkpt>
      <trkpt lat="44.232" lon="4.10254">
        <ele>500</ele>
        <time>2014-03-11T15:36:10Z</time>
      </trkpt>
      <trkpt lat="44.23195" lon="4.10278">
        <ele>499</ele>
        <time>2014-03-11T15:36:30Z</time>
      </trkpt>
      <trkpt lat="44.2319" lon="4.10301">
        <ele>497</ele>
        <time>2014-03-11T15:36:49Z</time>
      </trkpt>
      <trkpt lat="44.23184" lon="4.10324">
        <ele>494</ele>
        <time>2014-03-11T15:37:07Z</time>
      </trkpt>
      <trkpt lat="44.23178" lon="4.10346">
        <ele>491</ele>
        <time>2014-03-11T15:37:24Z</time>
      </trkpt>
      <trkpt lat="44.23172" lon="4.10369">
        <ele>489</ele>
        <time>2014-03-11T15:37:41Z</time>
      </trkpt>
      <trkpt lat="44.23165" lon="4.10392">
        <ele>488</ele>
        <time>2014-03-11T15:37:58Z</time>
      </trkpt>
      <trkpt lat="44.23157" lon="4.10413">
        <ele>488</ele>
        <time>2014-03-11T15:38:12Z</time>
      </trkpt>
      <trkpt lat="44.23147" lon="4.10432">
        <ele>486</ele>
        <time>2014-03-11T15:38:28Z</time>
      </trkpt>
      <trkpt lat="44.23135" lon="4.10451">
        <ele>485</ele>
        <time>2014-03-11T15:38:43Z</time>
      </trkpt>
      <trkpt lat="44.23124" lon="4.1047">
        <ele>483</ele>
        <time>2014-03-11T15:38:59Z</time>
      </trkpt>
      <trkpt lat="44.23115" lon="4.1049">
        <ele>480</ele>
        <time>2014-03-11T15:39:17Z</time>
      </trkpt>
      <trkpt lat="44.23108" lon="4.10512">
        <ele>478</ele>
        <time>2014-03-11T15:39:36Z</time>
      </trkpt>
      <trkpt lat="44.23104" lon="4.10536">
        <ele>475</ele>
        <time>2014-03-11T15:39:54Z</time>
      </trkpt>
      <trkpt lat="44.231" lon="4.10559">
        <ele>474</ele>
        <time>2014-03-11T15:40:11Z</time>
      </trkpt>
      <trkpt lat="44.23096" lon="4.10583">
        <ele>472</ele>
        <time>2014-03-11T15:40:28Z</time>
      </trkpt>
      <trkpt lat="44.23092" lon="4.10606">
        <ele>470</ele>
        <time>2014-03-11T15:40:44Z</time>
      </trkpt>
      <trkpt lat="44.23086" lon="4.10629">
        <ele>470</ele>
        <time>2014-03-11T15:40:59Z</time>
      </trkpt>
      <trkpt lat="44.23078" lon="4.10652">
        <ele>470</ele>
        <time>2014-03-11T15:41:14Z</time>
      </trkpt>
      <trkpt lat="44.23069" lon="4.10672">
        <ele>468</ele>
        <time>2014-03-11T15:41:30Z</time>
      </trkpt>
      <trkpt lat="44.23059" lon="4.10692">
        <ele>468</ele>
        <time>2014-03-11T15:41:46Z</time>
      </trkpt>
      <trkpt lat="44.23046" lon="4.10708">
        <ele>470</ele>
        <time>2014-03-11T15:42:01Z</time>
      </trkpt>
      <trkpt lat="44.23032" lon="4.10722">
        <ele>470</ele>
        <time>2014-03-11T15:42:17Z</time>
      </trkpt>
      <trkpt lat="44.23016" lon="4.10731">
        <ele>473</ele>
        <time>2014-03-11T15:42:32Z</time>
      </trkpt>
      <trkpt lat="44.23" lon="4.10737">
        <ele>475</ele>
        <time>2014-03-11T15:42:46Z</time>
      </trkpt>
      <trkpt lat="44.22982" lon="4.10742">
        <ele>478</ele>
        <time>2014-03-11T15:43:01Z</time>
      </trkpt>
      <trkpt lat="44.22965" lon="4.10749">
        <ele>473</ele>
        <time>2014-03-11T15:43:19Z</time>
      </trkpt>
      <trkpt lat="44.22949" lon="4.10758">
        <ele>460</ele>
        <time>2014-03-11T15:43:40Z</time>
      </trkpt>
      <trkpt lat="44.22932" lon="4.10759">
        <ele>457</ele>
        <time>2014-03-11T15:43:57Z</time>
      </trkpt>
      <trkpt lat="44.22914" lon="4.10759">
        <ele>454</ele>
        <time>2014-03-11T15:44:15Z</time>
      </trkpt>
      <trkpt lat="44.22897" lon="4.10757">
        <ele>456</ele>
        <time>2014-03-11T15:44:30Z</time>
      </trkpt>
      <trkpt lat="44.2288" lon="4.10755">
        <ele>452</ele>
        <time>2014-03-11T15:44:48Z</time>
      </trkpt>
      <trkpt lat="44.22863" lon="4.10753">
        <ele>452</ele>
        <time>2014-03-11T15:45:04Z</time>
      </trkpt>
      <trkpt lat="44.22845" lon="4.10749">
        <ele>446</ele>
        <time>2014-03-11T15:45:26Z</time>
      </trkpt>
      <trkpt lat="44.22829" lon="4.10756">
        <ele>444</ele>
        <time>2014-03-11T15:45:45Z</time>
      </trkpt>
      <trkpt lat="44.2282" lon="4.10776">
        <ele>443</ele>
        <time>2014-03-11T15:46:04Z</time>
      </trkpt>
      <trkpt lat="44.22819" lon="4.10801">
        <ele>437</ele>
        <time>2014-03-11T15:46:25Z</time>
      </trkpt>
      <trkpt lat="44.22821" lon="4.10825">
        <ele>429</ele>
        <time>2014-03-11T15:46:47Z</time>
      </trkpt>
      <trkpt lat="44.22823" lon="4.10849">
        <ele>424</ele>
        <time>2014-03-11T15:47:07Z</time>
      </trkpt>
      <trkpt lat="44.22825" lon="4.10874">
        <ele>428</ele>
        <time>2014-03-11T15:47:22Z</time>
      </trkpt>
      <trkpt lat="44.22827" lon="4.10898">
        <ele>416</ele>
        <time>2014-03-11T15:47:50Z</time>
      </trkpt>
      <trkpt lat="44.22831" lon="4.10922">
        <ele>420</ele>
        <time>2014-03-11T15:48:06Z</time>
      </trkpt>
      <trkpt lat="44.22832" lon="4.10946">
        <ele>424</ele>
        <time>2014-03-11T15:48:19Z</time>
      </trkpt>
      <trkpt lat="44.22833" lon="4.1097">
        <ele>425</ele>
        <time>2014-03-11T15:48:34Z</time>
      </trkpt>
      <trkpt lat="44.22833" lon="4.10994">
        <ele>424</ele>
        <time>2014-03-11T15:48:51Z</time>
      </trkpt>
      <trkpt lat="44.22831" lon="4.11018">
        <ele>424</ele>
        <time>2014-03-11T15:49:08Z</time>
      </trkpt>
      <trkpt lat="44.2283" lon="4.11043">
        <ele>418</ele>
        <time>2014-03-11T15:49:26Z</time>
      </trkpt>
      <trkpt lat="44.2283" lon="4.11067">
        <ele>413</ele>
        <time>2014-03-11T15:49:44Z</time>
      </trkpt>
      <trkpt lat="44.22831" lon="4.1109">
        <ele>410</ele>
        <time>2014-03-11T15:50:01Z</time>
      </trkpt>
      <trkpt lat="44.22837" lon="4.11114">
        <ele>397</ele>
        <time>2014-03-11T15:50:26Z</time>
      </trkpt>
      <trkpt lat="44.22852" lon="4.11124">
        <ele>388</ele>
        <time>2014-03-11T15:50:46Z</time>
      </trkpt>
      <trkpt lat="44.22866" lon="4.11139">
        <ele>381</ele>
        <time>2014-03-11T15:51:06Z</time>
      </trkpt>
      <trkpt lat="44.22875" lon="4.11161">
        <ele>371</ele>
        <time>2014-03-11T15:51:27Z</time>
      </trkpt>
      <trkpt lat="44.22879" lon="4.11185">
        <ele>367</ele>
        <time>2014-03-11T15:51:45Z</time>
      </trkpt>
      <trkpt lat="44.2288" lon="4.11209">
        <ele>364</ele>
        <time>2014-03-11T15:52:01Z</time>
      </trkpt>
      <trkpt lat="44.2288" lon="4.11234">
        <ele>361</ele>
        <time>2014-03-11T15:52:20Z</time>
      </trkpt>
      <trkpt lat="44.22881" lon="4.11259">
        <ele>364</ele>
        <time>2014-03-11T15:52:43Z</time>
      </trkpt>
      <trkpt lat="44.22883" lon="4.11283">
        <ele>379</ele>
        <time>2014-03-11T15:52:57Z</time>
      </trkpt>
      <trkpt lat="44.22883" lon="4.11307">
        <ele>394</ele>
        <time>2014-03-11T15:53:10Z</time>
      </trkpt>
      <trkpt lat="44.22879" lon="4.11331">
        <ele>402</ele>
        <time>2014-03-11T15:53:36Z</time>
      </trkpt>
      <trkpt lat="44.22873" lon="4.11354">
        <ele>403</ele>
        <time>2014-03-11T15:53:57Z</time>
      </trkpt>
      <trkpt lat="44.22867" lon="4.11377">
        <ele>404</ele>
        <time>2014-03-11T15:54:13Z</time>
      </trkpt>
      <trkpt lat="44.22865" lon="4.11401">
        <ele>404</ele>
        <time>2014-03-11T15:54:29Z</time>
      </trkpt>
      <trkpt lat="44.22866" lon="4.11425">
        <ele>397</ele>
        <time>2014-03-11T15:54:48Z</time>
      </trkpt>
      <trkpt lat="44.22867" lon="4.11449">
        <ele>392</ele>
        <time>2014-03-11T15:55:04Z</time>
      </trkpt>
      <trkpt lat="44.22864" lon="4.11473">
        <ele>391</ele>
        <time>2014-03-11T15:55:21Z</time>
      </trkpt>
      <trkpt lat="44.22854" lon="4.11493">
        <ele>392</ele>
        <time>2014-03-11T15:55:39Z</time>
      </trkpt>
      <trkpt lat="44.22839" lon="4.11506">
        <ele>392</ele>
        <time>2014-03-11T15:55:57Z</time>
      </trkpt>
      <trkpt lat="44.22825" lon="4.11521">
        <ele>398</ele>
        <time>2014-03-11T15:56:11Z</time>
      </trkpt>
      <trkpt lat="44.22814" lon="4.11538">
        <ele>399</ele>
        <time>2014-03-11T15:56:24Z</time>
      </trkpt>
      <trkpt lat="44.228" lon="4.11555">
        <ele>396</ele>
        <time>2014-03-11T15:56:40Z</time>
      </trkpt>
      <trkpt lat="44.22783" lon="4.11559">
        <ele>389</ele>
        <time>2014-03-11T15:56:53Z</time>
      </trkpt>
      <trkpt lat="44.22776" lon="4.11582">
        <ele>393</ele>
        <time>2014-03-11T15:57:16Z</time>
      </trkpt>
      <trkpt lat="44.22794" lon="4.11582">
        <ele>389</ele>
        <time>2014-03-11T15:57:45Z</time>
      </trkpt>
      <trkpt lat="44.22811" lon="4.11577">
        <ele>387</ele>
        <time>2014-03-11T15:58:07Z</time>
      </trkpt>
      <trkpt lat="44.22828" lon="4.11575">
        <ele>392</ele>
        <time>2014-03-11T15:58:22Z</time>
      </trkpt>
      <trkpt lat="44.22846" lon="4.11576">
        <ele>395</ele>
        <time>2014-03-11T15:58:43Z</time>
      </trkpt>
      <trkpt lat="44.22863" lon="4.11582">
        <ele>386</ele>
        <time>2014-03-11T15:59:03Z</time>
      </trkpt>
      <trkpt lat="44.22879" lon="4.11589">
        <ele>380</ele>
        <time>2014-03-11T15:59:20Z</time>
      </trkpt>
      <trkpt lat="44.22896" lon="4.11581">
        <ele>373</ele>
        <time>2014-03-11T16:01:24Z</time>
      </trkpt>
      <trkpt lat="44.22909" lon="4.11597">
        <ele>368</ele>
        <time>2014-03-11T16:01:46Z</time>
      </trkpt>
      <trkpt lat="44.22923" lon="4.11612">
        <ele>368</ele>
        <time>2014-03-11T16:02:06Z</time>
      </trkpt>
      <trkpt lat="44.22936" lon="4.11626">
        <ele>362</ele>
        <time>2014-03-11T16:02:26Z</time>
      </trkpt>
      <trkpt lat="44.2295" lon="4.1164">
        <ele>359</ele>
        <time>2014-03-11T16:02:44Z</time>
      </trkpt>
      <trkpt lat="44.22965" lon="4.11654">
        <ele>360</ele>
        <time>2014-03-11T16:03:08Z</time>
      </trkpt>
      <trkpt lat="44.22963" lon="4.1163">
        <ele>352</ele>
        <time>2014-03-11T16:03:51Z</time>
      </trkpt>
      <trkpt lat="44.2296" lon="4.11605">
        <ele>348</ele>
        <time>2014-03-11T16:04:21Z</time>
      </trkpt>
      <trkpt lat="44.22957" lon="4.11582">
        <ele>339</ele>
        <time>2014-03-11T16:04:47Z</time>
      </trkpt>
      <trkpt lat="44.2296" lon="4.11557">
        <ele>335</ele>
        <time>2014-03-11T16:05:08Z</time>
      </trkpt>
      <trkpt lat="44.22965" lon="4.11534">
        <ele>336</ele>
        <time>2014-03-11T16:05:27Z</time>
      </trkpt>
      <trkpt lat="44.22972" lon="4.11512">
        <ele>337</ele>
        <time>2014-03-11T16:05:50Z</time>
      </trkpt>
      <trkpt lat="44.22979" lon="4.11489">
        <ele>337</ele>
        <time>2014-03-11T16:06:13Z</time>
      </trkpt>
      <trkpt lat="44.22981" lon="4.11465">
        <ele>333</ele>
        <time>2014-03-11T16:06:41Z</time>
      </trkpt>
      <trkpt lat="44.22986" lon="4.11441">
        <ele>340</ele>
        <time>2014-03-11T16:07:13Z</time>
      </trkpt>
      <trkpt lat="44.22994" lon="4.11419">
        <ele>335</ele>
        <time>2014-03-11T16:07:42Z</time>
      </trkpt>
      <trkpt lat="44.23004" lon="4.11398">
        <ele>329</ele>
        <time>2014-03-11T16:08:07Z</time>
      </trkpt>
      <trkpt lat="44.23016" lon="4.1138">
        <ele>325</ele>
        <time>2014-03-11T16:08:30Z</time>
      </trkpt>
      <trkpt lat="44.23031" lon="4.11366">
        <ele>329</ele>
        <time>2014-03-11T16:08:53Z</time>
      </trkpt>
      <trkpt lat="44.2304" lon="4.11345">
        <ele>328</ele>
        <time>2014-03-11T16:09:14Z</time>
      </trkpt>
      <trkpt lat="44.23051" lon="4.11326">
        <ele>326</ele>
        <time>2014-03-11T16:09:36Z</time>
      </trkpt>
      <trkpt lat="44.23067" lon="4.11314">
        <ele>320</ele>
        <time>2014-03-11T16:10:01Z</time>
      </trkpt>
      <trkpt lat="44.23084" lon="4.11314">
        <ele>324</ele>
        <time>2014-03-11T16:10:28Z</time>
      </trkpt>
      <trkpt lat="44.23101" lon="4.1131">
        <ele>326</ele>
        <time>2014-03-11T16:10:51Z</time>
      </trkpt>
      <trkpt lat="44.23115" lon="4.11326">
        <ele>336</ele>
        <time>2014-03-11T16:11:33Z</time>
      </trkpt>
      <trkpt lat="44.23132" lon="4.1133">
        <ele>337</ele>
        <time>2014-03-11T16:12:04Z</time>
      </trkpt>
      <trkpt lat="44.2315" lon="4.11328">
        <ele>306</ele>
        <time>2014-03-11T16:12:36Z</time>
      </trkpt>
      <trkpt lat="44.23167" lon="4.11324">
        <ele>307</ele>
        <time>2014-03-11T16:12:56Z</time>
      </trkpt>
      <trkpt lat="44.23184" lon="4.1133">
        <ele>308</ele>
        <time>2014-03-11T16:13:23Z</time>
      </trkpt>
      <trkpt lat="44.23202" lon="4.11328">
        <ele>297</ele>
        <time>2014-03-11T16:13:53Z</time>
      </trkpt>
      <trkpt lat="44.23219" lon="4.11333">
        <ele>309</ele>
        <time>2014-03-11T16:14:11Z</time>
      </trkpt>
      <trkpt lat="44.23233" lon="4.11346">
        <ele>294</ele>
        <time>2014-03-11T16:14:39Z</time>
      </trkpt>
      <trkpt lat="44.2325" lon="4.11355">
        <ele>291</ele>
        <time>2014-03-11T16:15:07Z</time>
      </trkpt>
      <trkpt lat="44.23267" lon="4.11354">
        <ele>288</ele>
        <time>2014-03-11T16:15:29Z</time>
      </trkpt>
      <trkpt lat="44.23282" lon="4.11342">
        <ele>278</ele>
        <time>2014-03-11T16:15:54Z</time>
      </trkpt>
      <trkpt lat="44.23295" lon="4.11326">
        <ele>276</ele>
        <time>2014-03-11T16:16:14Z</time>
      </trkpt>
      <trkpt lat="44.23307" lon="4.11308">
        <ele>275</ele>
        <time>2014-03-11T16:16:53Z</time>
      </trkpt>
      <trkpt lat="44.23323" lon="4.11297">
        <ele>280</ele>
        <time>2014-03-11T16:17:20Z</time>
      </trkpt>
      <trkpt lat="44.23339" lon="4.11289">
        <ele>272</ele>
        <time>2014-03-11T16:17:44Z</time>
      </trkpt>
      <trkpt lat="44.23353" lon="4.11274">
        <ele>268</ele>
        <time>2014-03-11T16:18:04Z</time>
      </trkpt>
      <trkpt lat="44.23366" lon="4.11257">
        <ele>265</ele>
        <time>2014-03-11T16:18:25Z</time>
      </trkpt>
      <trkpt lat="44.23378" lon="4.1124">
        <ele>263</ele>
        <time>2014-03-11T16:18:46Z</time>
      </trkpt>
      <trkpt lat="44.23393" lon="4.11226">
        <ele>266</ele>
        <time>2014-03-11T16:19:05Z</time>
      </trkpt>
      <trkpt lat="44.23409" lon="4.11216">
        <ele>266</ele>
        <time>2014-03-11T16:19:27Z</time>
      </trkpt>
      <trkpt lat="44.23424" lon="4.11204">
        <ele>264</ele>
        <time>2014-03-11T16:19:47Z</time>
      </trkpt>
      <trkpt lat="44.2344" lon="4.11194">
        <ele>260</ele>
        <time>2014-03-11T16:20:07Z</time>
      </trkpt>
      <trkpt lat="44.23447" lon="4.11172">
        <ele>255</ele>
        <time>2014-03-11T16:20:29Z</time>
      </trkpt>
      <trkpt lat="44.23461" lon="4.11157">
        <ele>265</ele>
        <time>2014-03-11T16:21:05Z</time>
      </trkpt>
      <trkpt lat="44.23471" lon="4.11178">
        <ele>262</ele>
        <time>2014-03-11T16:23:57Z</time>
      </trkpt>
      <trkpt lat="44.23483" lon="4.11195">
        <ele>252</ele>
        <time>2014-03-11T16:24:29Z</time>
      </trkpt>
      <trkpt lat="44.23501" lon="4.11195">
        <ele>248</ele>
        <time>2014-03-11T16:24:50Z</time>
      </trkpt>
      <trkpt lat="44.23517" lon="4.11204">
        <ele>242</ele>
        <time>2014-03-11T16:25:11Z</time>
      </trkpt>
      <trkpt lat="44.2353" lon="4.11221">
        <ele>248</ele>
        <time>2014-03-11T16:25:30Z</time>
      </trkpt>
      <trkpt lat="44.23548" lon="4.11221">
        <ele>238</ele>
        <time>2014-03-11T16:26:05Z</time>
      </trkpt>
      <trkpt lat="44.23565" lon="4.11226">
        <ele>234</ele>
        <time>2014-03-11T16:26:25Z</time>
      </trkpt>
      <trkpt lat="44.2358" lon="4.11215">
        <ele>231</ele>
        <time>2014-03-11T16:26:44Z</time>
      </trkpt>
      <trkpt lat="44.23592" lon="4.11196">
        <ele>230</ele>
        <time>2014-03-11T16:26:59Z</time>
      </trkpt>
      <trkpt lat="44.23601" lon="4.11175">
        <ele>230</ele>
        <time>2014-03-11T16:27:13Z</time>
      </trkpt>
      <trkpt lat="44.23609" lon="4.11154">
        <ele>231</ele>
        <time>2014-03-11T16:27:27Z</time>
      </trkpt>
      <trkpt lat="44.23622" lon="4.11137">
        <ele>230</ele>
        <time>2014-03-11T16:27:43Z</time>
      </trkpt>
      <trkpt lat="44.23639" lon="4.11145">
        <ele>227</ele>
        <time>2014-03-11T16:28:03Z</time>
      </trkpt>
      <trkpt lat="44.23654" lon="4.11156">
        <ele>226</ele>
        <time>2014-03-11T16:28:23Z</time>
      </trkpt>
      <trkpt lat="44.23669" lon="4.1117">
        <ele>229</ele>
        <time>2014-03-11T16:28:36Z</time>
      </trkpt>
      <trkpt lat="44.23678" lon="4.11191">
        <ele>229</ele>
        <time>2014-03-11T16:28:52Z</time>
      </trkpt>
      <trkpt lat="44.23688" lon="4.1121">
        <ele>236</ele>
        <time>2014-03-11T16:29:03Z</time>
      </trkpt>
      <trkpt lat="44.23702" lon="4.11225">
        <ele>234</ele>
        <time>2014-03-11T16:29:19Z</time>
      </trkpt>
      <trkpt lat="44.23718" lon="4.11234">
        <ele>232</ele>
        <time>2014-03-11T16:29:33Z</time>
      </trkpt>
      <trkpt lat="44.23734" lon="4.11242">
        <ele>234</ele>
        <time>2014-03-11T16:29:46Z</time>
      </trkpt>
      <trkpt lat="44.2375" lon="4.1125">
        <ele>236</ele>
        <time>2014-03-11T16:29:59Z</time>
      </trkpt>
      <trkpt lat="44.23767" lon="4.1126">
        <ele>237</ele>
        <time>2014-03-11T16:30:15Z</time>
      </trkpt>
      <trkpt lat="44.23782" lon="4.1127">
        <ele>236</ele>
        <time>2014-03-11T16:30:32Z</time>
      </trkpt>
      <trkpt lat="44.23798" lon="4.11278">
        <ele>236</ele>
        <time>2014-03-11T16:30:49Z</time>
      </trkpt>
      <trkpt lat="44.23815" lon="4.11285">
        <ele>237</ele>
        <time>2014-03-11T16:31:04Z</time>
      </trkpt>
      <trkpt lat="44.23832" lon="4.11291">
        <ele>242</ele>
        <time>2014-03-11T16:31:25Z</time>
      </trkpt>
      <trkpt lat="44.2385" lon="4.11295">
        <ele>242</ele>
        <time>2014-03-11T16:32:12Z</time>
      </trkpt>
      <trkpt lat="44.23866" lon="4.11303">
        <ele>237</ele>
        <time>2014-03-11T16:32:31Z</time>
      </trkpt>
      <trkpt lat="44.23882" lon="4.11313">
        <ele>240</ele>
        <time>2014-03-11T16:32:45Z</time>
      </trkpt>
      <trkpt lat="44.23897" lon="4.11322">
        <ele>243</ele>
        <time>2014-03-11T16:33:01Z</time>
      </trkpt>
      <trkpt lat="44.23914" lon="4.1133">
        <ele>246</ele>
        <time>2014-03-11T16:33:16Z</time>
      </trkpt>
      <trkpt lat="44.23931" lon="4.11339">
        <ele>249</ele>
        <time>2014-03-11T16:33:38Z</time>
      </trkpt>
      <trkpt lat="44.23946" lon="4.1135">
        <ele>255</ele>
        <time>2014-03-11T16:34:02Z</time>
      </trkpt>
      <trkpt lat="44.23964" lon="4.11352">
        <ele>257</ele>
        <time>2014-03-11T16:34:26Z</time>
      </trkpt>
      <trkpt lat="44.23981" lon="4.11349">
        <ele>258</ele>
        <time>2014-03-11T16:34:46Z</time>
      </trkpt>
      <trkpt lat="44.23998" lon="4.11348">
        <ele>258</ele>
        <time>2014-03-11T16:35:06Z</time>
      </trkpt>
      <trkpt lat="44.24016" lon="4.11343">
        <ele>258</ele>
        <time>2014-03-11T16:35:25Z</time>
      </trkpt>
      <trkpt lat="44.24033" lon="4.1134">
        <ele>259</ele>
        <time>2014-03-11T16:35:42Z</time>
      </trkpt>
      <trkpt lat="44.24049" lon="4.11333">
        <ele>258</ele>
        <time>2014-03-11T16:35:59Z</time>
      </trkpt>
      <trkpt lat="44.24063" lon="4.11318">
        <ele>256</ele>
        <time>2014-03-11T16:36:15Z</time>
      </trkpt>
      <trkpt lat="44.24076" lon="4.11304">
        <ele>255</ele>
        <time>2014-03-11T16:36:32Z</time>
      </trkpt>
      <trkpt lat="44.2409" lon="4.11288">
        <ele>254</ele>
        <time>2014-03-11T16:36:49Z</time>
      </trkpt>
      <trkpt lat="44.24104" lon="4.11273">
        <ele>253</ele>
        <time>2014-03-11T16:37:05Z</time>
      </trkpt>
      <trkpt lat="44.24118" lon="4.11259">
        <ele>252</ele>
        <time>2014-03-11T16:37:22Z</time>
      </trkpt>
      <trkpt lat="44.24135" lon="4.11254">
        <ele>252</ele>
        <time>2014-03-11T16:37:41Z</time>
      </trkpt>
      <trkpt lat="44.24149" lon="4.11261">
        <ele>254</ele>
        <time>2014-03-11T16:37:54Z</time>
      </trkpt>
      <trkpt lat="44.24149" lon="4.11261">
        <ele>254</ele>
        <time>2014-03-11T16:37:54Z</time>
      </trkpt>
    </trkseg>
  </trk>
</gpx>